createdAt,value
2023-04-14T00:00:36.627Z,85.14
2023-04-14T00:03:03.880Z,85.61
2023-04-14T00:05:31.735Z,85.11
2023-04-14T00:07:58.162Z,85.85
2023-04-14T00:10:24.869Z,85.81
2023-04-14T00:12:51.449Z,86.31
2023-04-14T00:15:18.123Z,85.98
2023-04-14T00:17:44.822Z,86.08
2023-04-14T00:20:11.363Z,87.09
2023-04-14T00:22:37.778Z,86.32
2023-04-14T00:25:04.434Z,87.14
2023-04-14T00:27:31.184Z,87.56
2023-04-14T00:29:57.787Z,88.46
2023-04-14T00:32:24.249Z,88.79
2023-04-14T00:34:50.829Z,89.70
2023-04-14T00:37:17.364Z,90.07
2023-04-14T00:39:43.824Z,90.23
2023-04-14T00:42:10.226Z,90.32
2023-04-14T00:44:36.628Z,90.42
2023-04-14T00:47:03.742Z,90.32
2023-04-14T00:49:30.372Z,90.76
2023-04-14T00:51:57.471Z,91.45
2023-04-14T00:54:25.048Z,90.96
2023-04-14T00:56:51.861Z,91.41
2023-04-14T00:59:18.353Z,90.79
2023-04-14T01:01:45.053Z,91.29
2023-04-14T01:04:12.235Z,91.35
2023-04-14T01:06:38.757Z,91.32
2023-04-14T01:09:06.397Z,91.13
2023-04-14T01:12:07.135Z,91.10
2023-04-14T01:14:58.183Z,91.34
2023-04-14T01:17:37.395Z,90.91
2023-04-14T01:20:37.545Z,90.59
2023-04-14T01:23:17.540Z,91.07
2023-04-14T01:26:02.798Z,90.67
2023-04-14T01:28:36.934Z,89.80
2023-04-14T01:31:38.314Z,90.11
2023-04-14T01:34:20.865Z,89.90
2023-04-14T01:36:55.439Z,89.44
2023-04-14T01:39:26.466Z,90.46
2023-04-14T01:41:56.955Z,90.39
2023-04-14T01:44:23.932Z,90.31
2023-04-14T01:46:53.417Z,89.75
2023-04-14T01:49:22.383Z,89.56
2023-04-14T01:51:50.497Z,89.81
2023-04-14T01:54:19.846Z,90.23
2023-04-14T01:56:47.464Z,91.03
2023-04-14T01:59:15.893Z,91.11
2023-04-14T02:01:44.114Z,90.85
2023-04-14T02:04:11.707Z,90.87
2023-04-14T02:06:40.614Z,91.37
2023-04-14T02:09:10.396Z,90.89
2023-04-14T02:11:37.649Z,91.38
2023-04-14T02:14:05.970Z,90.99
2023-04-14T02:16:35.966Z,91.11
2023-04-14T02:19:05.132Z,92.23
2023-04-14T02:21:35.464Z,91.70
2023-04-14T02:24:03.543Z,91.58
2023-04-14T02:26:33.748Z,91.78
2023-04-14T02:29:20.367Z,92.15
2023-04-14T02:31:54.899Z,91.62
2023-04-14T02:34:25.261Z,91.38
2023-04-14T02:36:55.270Z,92.28
2023-04-14T02:39:29.494Z,91.33
2023-04-14T02:42:13.794Z,91.89
2023-04-14T02:44:48.557Z,91.91
2023-04-14T02:47:23.802Z,91.56
2023-04-14T02:49:52.875Z,91.49
2023-04-14T02:52:22.080Z,91.16
2023-04-14T02:54:50.056Z,90.73
2023-04-14T02:57:17.738Z,91.34
2023-04-14T02:59:47.952Z,91.19
2023-04-14T03:02:17.424Z,91.50
2023-04-14T03:04:47.980Z,91.41
2023-04-14T03:07:24.140Z,91.31
2023-04-14T03:09:51.650Z,91.59
2023-04-14T03:12:19.970Z,92.47
2023-04-14T03:14:47.604Z,92.13
2023-04-14T03:17:15.470Z,91.46
2023-04-14T03:19:42.777Z,92.28
2023-04-14T03:22:11.003Z,92.32
2023-04-14T03:24:38.870Z,91.84
2023-04-14T03:27:10.688Z,91.91
2023-04-14T03:29:44.576Z,92.18
2023-04-14T03:32:13.469Z,91.75
2023-04-14T03:34:46.638Z,91.78
2023-04-14T03:37:17.882Z,91.59
2023-04-14T03:39:50.575Z,92.02
2023-04-14T03:42:20.813Z,92.06
2023-04-14T03:44:53.069Z,92.13
2023-04-14T03:47:23.568Z,92.44
2023-04-14T03:49:57.087Z,91.92
2023-04-14T03:52:24.917Z,92.02
2023-04-14T03:54:54.941Z,92.10
2023-04-14T03:57:23.248Z,92.42
2023-04-14T03:59:52.281Z,92.03
2023-04-14T04:02:22.784Z,91.69
2023-04-14T04:04:50.026Z,92.52
2023-04-14T04:07:19.286Z,91.50
2023-04-14T04:09:47.226Z,92.10
2023-04-14T04:12:16.291Z,91.64
2023-04-14T04:14:42.785Z,91.68
2023-04-14T04:17:15.420Z,91.24
2023-04-14T04:19:44.631Z,92.11
2023-04-14T04:22:14.226Z,91.75
2023-04-14T04:24:42.446Z,91.86
2023-04-14T04:27:26.642Z,91.90
2023-04-14T04:29:57.419Z,91.86
2023-04-14T04:32:25.082Z,92.41
2023-04-14T04:34:52.965Z,91.97
2023-04-14T04:37:21.135Z,92.33
2023-04-14T04:39:50.583Z,92.48
2023-04-14T04:42:18.773Z,91.77
2023-04-14T04:44:45.248Z,92.18
2023-04-14T04:47:12.680Z,92.04
2023-04-14T04:49:39.082Z,91.98
2023-04-14T04:52:05.647Z,91.49
2023-04-14T04:54:32.178Z,91.55
2023-04-14T04:56:58.839Z,91.77
2023-04-14T04:59:25.940Z,92.40
2023-04-14T05:01:52.591Z,91.04
2023-04-14T05:04:19.248Z,91.50
2023-04-14T05:06:45.732Z,91.85
2023-04-14T05:09:12.237Z,91.81
2023-04-14T05:11:38.717Z,91.31
2023-04-14T05:14:05.263Z,91.91
2023-04-14T05:16:31.976Z,91.58
2023-04-14T05:18:59.216Z,91.87
2023-04-14T05:21:25.867Z,91.68
2023-04-14T05:23:52.260Z,90.89
2023-04-14T05:28:47.950Z,90.94
2023-04-14T05:31:14.555Z,90.64
2023-04-14T05:33:41.012Z,89.70
2023-04-14T05:36:07.579Z,89.83
2023-04-14T05:38:38.884Z,88.94
2023-04-14T05:41:05.920Z,89.28
2023-04-14T05:43:32.340Z,88.74
2023-04-14T05:45:58.772Z,88.64
2023-04-14T05:48:27.942Z,88.61
2023-04-14T05:50:54.320Z,88.88
2023-04-14T05:53:20.711Z,88.69
2023-04-14T05:55:48.664Z,89.33
2023-04-14T05:58:15.314Z,89.49
2023-04-14T06:00:41.721Z,90.08
2023-04-14T06:03:08.424Z,91.04
2023-04-14T06:05:35.286Z,91.63
2023-04-14T06:08:01.791Z,91.31
2023-04-14T06:10:28.245Z,91.54
2023-04-14T06:12:54.719Z,91.41
2023-04-14T06:15:21.083Z,91.59
2023-04-14T06:17:48.270Z,92.18
2023-04-14T06:20:14.750Z,91.45
2023-04-14T06:22:42.147Z,91.57
2023-04-14T06:25:08.666Z,91.91
2023-04-14T06:27:35.715Z,92.05
2023-04-14T06:30:02.259Z,91.81
2023-04-14T06:32:28.705Z,92.08
2023-04-14T06:34:55.236Z,91.75
2023-04-14T06:37:21.770Z,91.84
2023-04-14T06:39:48.222Z,91.65
2023-04-14T06:42:15.429Z,91.47
2023-04-14T06:44:41.849Z,91.67
2023-04-14T06:47:09.348Z,91.92
2023-04-14T06:49:37.055Z,91.50
2023-04-14T06:52:05.090Z,91.51
2023-04-14T06:54:32.038Z,91.21
2023-04-14T06:57:00.109Z,91.17
2023-04-14T06:59:29.160Z,90.89
2023-04-14T07:01:55.944Z,90.75
2023-04-14T07:04:22.878Z,90.46
2023-04-14T07:06:49.358Z,89.85
2023-04-14T07:09:16.257Z,89.94
2023-04-14T07:11:42.870Z,90.41
2023-04-14T07:14:09.313Z,82.74
2023-04-14T07:16:35.818Z,75.72
2023-04-14T07:19:02.296Z,70.21
2023-04-14T07:21:28.857Z,63.84
2023-04-14T07:23:55.242Z,59.23
2023-04-14T07:26:21.660Z,59.69
2023-04-14T07:28:48.107Z,59.14
2023-04-14T07:31:14.593Z,53.75
2023-04-14T07:33:41.100Z,51.71
2023-04-14T07:36:09.308Z,49.60
2023-04-14T07:38:35.715Z,46.56
2023-04-14T07:41:04.698Z,45.53
2023-04-14T07:43:40.361Z,46.14
2023-04-14T07:46:08.504Z,52.17
2023-04-14T07:48:36.857Z,55.89
2023-04-14T07:51:05.164Z,56.91
2023-04-14T07:53:32.825Z,58.58
2023-04-14T07:55:59.497Z,55.37
2023-04-14T07:58:28.562Z,54.08
2023-04-14T08:00:55.719Z,56.41
2023-04-14T08:03:22.310Z,53.57
2023-04-14T08:05:48.944Z,49.38
2023-04-14T08:08:15.523Z,46.83
2023-04-14T08:10:42.487Z,48.81
2023-04-14T08:13:09.541Z,48.75
2023-04-14T08:15:36.177Z,48.69
2023-04-14T08:18:02.929Z,49.21
2023-04-14T08:20:29.380Z,48.49
2023-04-14T08:22:56.890Z,45.75
2023-04-14T08:25:23.897Z,46.43
2023-04-14T08:27:50.422Z,45.95
2023-04-14T08:30:17.074Z,45.53
2023-04-14T08:32:43.732Z,44.64
2023-04-14T08:35:40.120Z,47.28
2023-04-14T08:37:56.701Z,50.80
2023-04-14T08:40:30.668Z,50.83
2023-04-14T08:42:57.104Z,51.09
2023-04-14T08:45:23.957Z,51.96
2023-04-14T08:47:55.006Z,52.20
2023-04-14T08:50:26.133Z,51.84
2023-04-14T08:52:56.370Z,52.37
2023-04-14T08:55:25.266Z,52.75
2023-04-14T08:57:52.110Z,52.28
2023-04-14T09:00:19.552Z,54.11
2023-04-14T09:02:46.907Z,52.11
2023-04-14T09:05:13.794Z,52.87
2023-04-14T09:07:42.617Z,53.61
2023-04-14T09:10:11.185Z,53.04
2023-04-14T09:12:41.559Z,52.55
2023-04-14T09:15:08.933Z,51.79
2023-04-14T09:17:36.568Z,50.90
2023-04-14T09:20:35.031Z,51.52
2023-04-14T09:22:50.361Z,51.89
2023-04-14T09:25:19.116Z,53.36
2023-04-14T09:27:45.911Z,53.62
2023-04-14T09:30:12.611Z,53.95
2023-04-14T09:32:40.335Z,54.03
2023-04-14T09:35:07.727Z,54.69
2023-04-14T09:37:44.575Z,53.13
2023-04-14T09:40:11.951Z,52.87
2023-04-14T09:42:39.934Z,51.66
2023-04-14T09:45:06.983Z,52.22
2023-04-14T09:47:33.462Z,53.22
2023-04-14T09:50:03.377Z,52.32
2023-04-14T09:52:48.381Z,52.31
2023-04-14T09:55:16.838Z,53.11
2023-04-14T09:57:47.217Z,51.63
2023-04-14T10:00:17.858Z,50.60
2023-04-14T10:02:58.167Z,51.73
2023-04-14T10:05:28.359Z,52.46
2023-04-14T10:07:55.708Z,50.78
2023-04-14T10:10:23.482Z,50.91
2023-04-14T10:12:52.943Z,50.41
2023-04-14T10:15:19.546Z,49.87
2023-04-14T10:17:46.089Z,50.88
2023-04-14T10:20:12.889Z,50.71
2023-04-14T10:22:41.349Z,49.79
2023-04-14T10:25:09.134Z,50.11
2023-04-14T10:27:36.637Z,50.29
2023-04-14T10:30:05.473Z,51.07
2023-04-14T10:32:35.257Z,49.97
2023-04-14T10:35:13.324Z,49.43
2023-04-14T10:37:49.309Z,48.34
2023-04-14T10:40:15.690Z,48.52
2023-04-14T10:42:55.835Z,49.31
2023-04-14T10:45:22.669Z,49.95
2023-04-14T10:47:52.610Z,50.17
2023-04-14T10:50:24.134Z,50.38
2023-04-14T10:52:54.237Z,50.42
2023-04-14T10:55:25.395Z,48.27
2023-04-14T10:57:54.357Z,49.40
2023-04-14T11:00:21.548Z,49.38
2023-04-14T11:03:20.809Z,48.64
2023-04-14T11:05:52.014Z,48.22
2023-04-14T11:08:35.454Z,49.69
2023-04-14T11:11:04.469Z,49.01
2023-04-14T11:13:32.528Z,48.42
2023-04-14T11:16:07.817Z,48.40
2023-04-14T11:18:37.368Z,48.52
2023-04-14T11:21:11.914Z,47.99
2023-04-14T11:23:38.565Z,49.47
2023-04-14T11:26:06.932Z,48.29
2023-04-14T11:28:36.052Z,48.36
2023-04-14T11:31:08.277Z,46.30
2023-04-14T11:33:39.684Z,47.84
2023-04-14T11:36:07.466Z,48.32
2023-04-14T11:38:35.914Z,47.17
2023-04-14T11:41:02.526Z,47.54
2023-04-14T11:43:32.461Z,47.12
2023-04-14T11:46:03.035Z,47.39
2023-04-14T11:48:30.673Z,47.99
2023-04-14T11:51:02.625Z,48.06
2023-04-14T11:53:29.162Z,46.74
2023-04-14T11:55:57.361Z,46.16
2023-04-14T11:58:25.748Z,46.05
2023-04-14T12:00:56.069Z,46.62
2023-04-14T12:03:30.101Z,47.18
2023-04-14T12:06:01.662Z,46.13
2023-04-14T12:08:32.584Z,46.52
2023-04-14T12:11:11.633Z,45.56
2023-04-14T12:13:44.936Z,46.16
2023-04-14T12:16:12.167Z,46.10
2023-04-14T12:18:39.539Z,46.07
2023-04-14T12:21:08.779Z,45.73
2023-04-14T12:23:39.715Z,46.16
2023-04-14T12:26:11.815Z,45.65
2023-04-14T12:28:42.062Z,45.98
2023-04-14T12:31:09.779Z,44.32
2023-04-14T12:33:36.386Z,43.95
2023-04-14T12:36:07.813Z,43.86
2023-04-14T12:38:34.693Z,43.19
2023-04-14T12:41:01.732Z,42.95
2023-04-14T12:43:29.169Z,43.74
2023-04-14T12:45:55.768Z,44.87
2023-04-14T12:48:22.385Z,42.94
2023-04-14T12:50:50.171Z,44.09
2023-04-14T12:53:28.700Z,43.17
2023-04-14T12:56:13.891Z,43.45
2023-04-14T12:58:42.650Z,42.74
2023-04-14T13:01:10.613Z,43.33
2023-04-14T13:03:50.297Z,42.16
2023-04-14T13:06:19.050Z,41.52
2023-04-14T13:08:47.113Z,41.29
2023-04-14T13:11:14.672Z,41.46
2023-04-14T13:13:41.501Z,42.32
2023-04-14T13:16:12.833Z,42.45
2023-04-14T13:18:42.567Z,42.90
2023-04-14T13:21:09.540Z,43.90
2023-04-14T13:23:36.662Z,43.38
2023-04-14T13:26:03.226Z,43.58
2023-04-14T13:28:29.761Z,43.78
2023-04-14T13:30:57.562Z,43.74
2023-04-14T13:33:25.656Z,43.16
2023-04-14T13:35:53.007Z,43.62
2023-04-14T13:38:19.444Z,43.21
2023-04-14T13:40:47.977Z,42.82
2023-04-14T13:43:16.810Z,42.50
2023-04-14T13:45:43.418Z,42.97
2023-04-14T13:48:09.937Z,43.64
2023-04-14T13:50:36.535Z,43.62
2023-04-14T13:53:03.210Z,43.32
2023-04-14T13:55:29.675Z,44.06
2023-04-14T13:57:56.248Z,44.04
2023-04-14T14:00:22.733Z,45.04
2023-04-14T14:02:49.304Z,44.37
2023-04-14T14:05:15.892Z,43.92
2023-04-14T14:07:43.000Z,44.33
2023-04-14T14:10:10.826Z,42.48
2023-04-14T14:12:37.587Z,42.25
2023-04-14T14:15:05.450Z,41.92
2023-04-14T14:17:32.045Z,42.28
2023-04-14T14:19:59.113Z,42.03
2023-04-14T14:22:26.145Z,41.18
2023-04-14T14:24:58.544Z,40.86
2023-04-14T14:27:31.692Z,40.30
2023-04-14T14:29:58.272Z,40.05
2023-04-14T14:32:24.780Z,39.75
2023-04-14T14:34:51.257Z,40.44
2023-04-14T14:37:18.726Z,41.28
2023-04-14T14:39:45.222Z,41.26
2023-04-14T14:42:11.946Z,40.13
2023-04-14T14:44:38.337Z,40.88
2023-04-14T14:47:06.000Z,41.32
2023-04-14T14:49:32.638Z,40.30
2023-04-14T14:51:59.097Z,40.94
2023-04-14T14:54:25.448Z,39.96
2023-04-14T14:56:51.903Z,40.21
2023-04-14T14:59:18.478Z,39.70
2023-04-14T15:01:45.108Z,39.47
2023-04-14T15:04:12.083Z,39.18
2023-04-14T15:06:38.634Z,39.06
2023-04-14T15:09:05.424Z,39.08
2023-04-14T15:11:31.942Z,40.10
2023-04-14T15:13:58.640Z,40.44
2023-04-14T15:16:25.481Z,41.17
2023-04-14T15:18:51.981Z,42.17
2023-04-14T15:21:18.641Z,42.06
2023-04-14T15:23:45.619Z,42.60
2023-04-14T15:26:13.975Z,42.26
2023-04-14T15:28:41.078Z,42.47
2023-04-14T15:31:08.161Z,42.58
2023-04-14T15:33:34.657Z,42.09
2023-04-14T15:36:01.543Z,42.71
2023-04-14T15:38:28.013Z,42.91
2023-04-14T15:40:54.664Z,43.66
2023-04-14T15:43:21.521Z,43.60
2023-04-14T15:45:47.995Z,43.12
2023-04-14T15:48:14.408Z,43.54
2023-04-14T15:50:44.660Z,43.26
2023-04-14T15:53:12.059Z,42.76
2023-04-14T15:55:39.568Z,42.29
2023-04-14T15:58:06.436Z,42.67
2023-04-14T16:00:33.355Z,43.95
2023-04-14T16:03:01.868Z,43.58
2023-04-14T16:05:28.733Z,43.66
2023-04-14T16:07:55.485Z,44.07
2023-04-14T16:10:22.363Z,44.33
2023-04-14T16:12:50.288Z,44.66
2023-04-14T16:15:17.087Z,44.63
2023-04-14T16:17:43.655Z,45.23
2023-04-14T16:20:12.222Z,43.71
2023-04-14T16:22:38.648Z,43.94
2023-04-14T16:25:06.727Z,43.19
2023-04-14T16:27:33.994Z,43.67
2023-04-14T16:30:00.464Z,43.44
2023-04-14T16:32:27.415Z,42.83
2023-04-14T16:34:53.900Z,43.33
2023-04-14T16:37:21.004Z,42.03
2023-04-14T16:39:47.392Z,41.98
2023-04-14T16:42:13.793Z,41.94
2023-04-14T16:44:40.282Z,41.76
2023-04-14T16:47:06.732Z,42.39
2023-04-14T16:49:33.168Z,41.66
2023-04-14T16:52:00.928Z,41.48
2023-04-14T16:54:27.573Z,41.89
2023-04-14T16:56:53.994Z,42.31
2023-04-14T16:59:20.368Z,42.81
2023-04-14T17:01:47.002Z,42.92
2023-04-14T17:04:13.822Z,42.76
2023-04-14T17:06:40.539Z,43.19
2023-04-14T17:09:06.977Z,42.95
2023-04-14T17:11:33.436Z,43.03
2023-04-14T17:14:00.020Z,43.25
2023-04-14T17:16:27.281Z,43.42
2023-04-14T17:18:53.737Z,43.45
2023-04-14T17:21:20.164Z,43.75
2023-04-14T17:23:46.606Z,44.19
2023-04-14T17:26:16.108Z,43.80
2023-04-14T17:28:42.737Z,44.21
2023-04-14T17:31:13.820Z,43.67
2023-04-14T17:33:44.716Z,43.91
2023-04-14T17:36:15.214Z,44.15
2023-04-14T17:38:42.799Z,43.43
2023-04-14T17:41:10.965Z,43.64
2023-04-14T17:43:39.463Z,43.61
2023-04-14T17:46:06.350Z,43.84
2023-04-14T17:48:33.438Z,43.56
2023-04-14T17:51:01.444Z,44.13
2023-04-14T17:53:29.193Z,45.11
2023-04-14T17:55:56.131Z,46.04
2023-04-14T17:58:24.116Z,47.03
2023-04-14T18:00:51.732Z,47.76
2023-04-14T18:03:18.320Z,47.97
2023-04-14T18:05:44.785Z,48.72
2023-04-14T18:08:11.208Z,49.25
2023-04-14T18:10:38.965Z,50.64
2023-04-14T18:13:05.664Z,51.07
2023-04-14T18:15:32.212Z,51.10
2023-04-14T18:17:58.649Z,51.31
2023-04-14T18:20:26.230Z,51.39
2023-04-14T18:22:57.511Z,50.84
2023-04-14T18:25:23.922Z,51.38
2023-04-14T18:30:20.306Z,52.01
2023-04-14T18:32:47.037Z,52.98
2023-04-14T18:35:14.862Z,53.06
2023-04-14T18:37:42.636Z,53.60
2023-04-14T18:40:09.342Z,54.22
2023-04-14T18:42:36.073Z,54.08
2023-04-14T18:45:03.465Z,54.50
2023-04-14T18:47:29.934Z,54.35
2023-04-14T18:49:56.368Z,53.38
2023-04-14T18:52:22.837Z,53.42
2023-04-14T18:54:49.481Z,54.97
2023-04-14T18:57:16.307Z,56.04
2023-04-14T18:59:42.786Z,55.54
2023-04-14T19:02:13.093Z,55.52
2023-04-14T19:04:40.745Z,55.41
2023-04-14T19:07:07.230Z,55.96
2023-04-14T19:09:35.944Z,57.17
2023-04-14T19:12:02.461Z,56.93
2023-04-14T19:14:29.378Z,57.10
2023-04-14T19:16:55.772Z,56.59
2023-04-14T19:19:22.198Z,57.51
2023-04-14T19:21:48.773Z,57.60
2023-04-14T19:24:15.268Z,56.94
2023-04-14T19:26:41.688Z,56.38
2023-04-14T19:29:08.137Z,56.45
2023-04-14T19:31:34.509Z,57.23
2023-04-14T19:34:00.901Z,57.54
2023-04-14T19:36:27.555Z,57.52
2023-04-14T19:38:53.935Z,58.16
2023-04-14T19:41:20.611Z,57.49
2023-04-14T19:43:47.125Z,58.20
2023-04-14T19:46:13.660Z,58.51
2023-04-14T19:48:40.390Z,58.12
2023-04-14T19:51:06.771Z,59.37
2023-04-14T19:53:33.473Z,58.89
2023-04-14T19:55:59.998Z,58.69
2023-04-14T19:58:28.361Z,58.36
2023-04-14T20:00:58.698Z,58.40
2023-04-14T20:03:25.971Z,59.07
2023-04-14T20:05:57.105Z,58.36
2023-04-14T20:08:25.052Z,58.90
2023-04-14T20:10:53.163Z,59.57
2023-04-14T20:13:21.109Z,59.40
2023-04-14T20:15:49.046Z,59.45
2023-04-14T20:18:17.642Z,60.69
2023-04-14T20:20:45.231Z,60.58
2023-04-14T20:23:11.704Z,60.27
2023-04-14T20:25:38.630Z,60.66
2023-04-14T20:28:06.168Z,61.03
2023-04-14T20:30:32.739Z,61.41
2023-04-14T20:33:00.610Z,62.27
2023-04-14T20:35:27.941Z,62.17
2023-04-14T20:37:54.366Z,61.60
2023-04-14T20:40:21.017Z,62.57
2023-04-14T20:42:47.825Z,63.63
2023-04-14T20:45:14.482Z,63.23
2023-04-14T20:47:41.263Z,64.08
2023-04-14T20:50:08.623Z,64.96
2023-04-14T20:52:35.543Z,64.58
2023-04-14T20:55:03.531Z,63.92
2023-04-14T20:57:29.989Z,64.95
2023-04-14T20:59:56.618Z,66.20
2023-04-14T21:02:23.285Z,66.46
2023-04-14T21:04:49.988Z,66.42
2023-04-14T21:07:16.385Z,66.91
2023-04-14T21:09:42.848Z,67.57
2023-04-14T21:12:15.398Z,67.19
2023-04-14T21:15:40.473Z,67.74
2023-04-14T21:17:29.022Z,67.56
2023-04-14T21:19:55.417Z,67.24
2023-04-14T21:22:22.376Z,67.22
2023-04-14T21:24:49.629Z,67.12
2023-04-14T21:27:17.339Z,66.89
2023-04-14T21:29:44.646Z,67.35
2023-04-14T21:32:11.568Z,67.51
2023-04-14T21:34:38.089Z,67.19
2023-04-14T21:37:04.548Z,67.31
2023-04-14T21:39:33.023Z,67.46
2023-04-14T21:42:00.371Z,67.74
2023-04-14T21:44:27.194Z,67.52
2023-04-14T21:46:54.866Z,67.33
2023-04-14T21:49:21.890Z,67.28
2023-04-14T21:51:50.175Z,67.60
2023-04-14T21:54:17.042Z,67.74
2023-04-14T21:56:43.533Z,67.51
2023-04-14T21:59:09.923Z,67.95
2023-04-14T22:01:36.450Z,67.97
2023-04-14T22:04:03.712Z,68.57
2023-04-14T22:06:30.364Z,68.87
2023-04-14T22:08:56.816Z,69.07
2023-04-14T22:11:23.315Z,69.48
2023-04-14T22:13:49.806Z,69.65
2023-04-14T22:16:16.361Z,69.56
2023-04-14T22:18:43.288Z,69.94
2023-04-14T22:21:10.591Z,69.95
2023-04-14T22:23:38.554Z,70.10
2023-04-14T22:26:05.133Z,70.01
2023-04-14T22:28:31.560Z,69.87
2023-04-14T22:30:58.159Z,69.75
2023-04-14T22:33:24.777Z,69.09
2023-04-14T22:35:51.415Z,69.23
2023-04-14T22:38:17.845Z,69.29
2023-04-14T22:40:44.422Z,69.48
2023-04-14T22:43:10.867Z,69.37
2023-04-14T22:45:41.413Z,69.57
2023-04-14T22:48:09.961Z,69.01
2023-04-14T22:50:36.684Z,68.79
2023-04-14T22:53:03.654Z,68.80
2023-04-14T22:55:30.662Z,68.63
2023-04-14T22:57:57.080Z,68.47
2023-04-14T23:00:23.502Z,69.17
2023-04-14T23:02:53.614Z,69.17
2023-04-14T23:05:20.131Z,69.23
2023-04-14T23:07:47.092Z,69.47
2023-04-14T23:10:14.211Z,69.67
2023-04-14T23:12:40.890Z,69.61
2023-04-14T23:15:07.798Z,69.62
2023-04-14T23:17:34.919Z,69.98
2023-04-14T23:20:02.377Z,69.91
2023-04-14T23:22:29.641Z,69.84
2023-04-14T23:24:56.032Z,70.47
2023-04-14T23:27:22.969Z,70.26
2023-04-14T23:29:49.399Z,69.98
2023-04-14T23:32:15.769Z,70.33
2023-04-14T23:34:42.160Z,70.20
2023-04-14T23:37:08.600Z,70.23
2023-04-14T23:39:35.530Z,70.90
2023-04-14T23:42:01.963Z,70.61
2023-04-14T23:44:28.402Z,70.40
2023-04-14T23:46:55.185Z,70.78
2023-04-14T23:49:23.792Z,71.01
2023-04-14T23:51:59.085Z,71.10
2023-04-14T23:54:25.977Z,71.03
2023-04-14T23:56:52.341Z,71.50
2023-04-14T23:59:18.867Z,71.20
